createdAt,value
2017-01-17T00:00:25.430Z,0
2017-01-17T00:01:26.048Z,0
2017-01-17T00:02:26.545Z,0
2017-01-17T00:03:25.633Z,0
2017-01-17T00:04:24.777Z,0
2017-01-17T00:05:24.169Z,0
2017-01-17T00:06:25.299Z,0
2017-01-17T00:07:26.058Z,0
2017-01-17T00:08:24.719Z,0
2017-01-17T00:09:25.034Z,0
2017-01-17T00:10:25.467Z,0
2017-01-17T00:11:25.314Z,0
2017-01-17T00:12:24.606Z,0
2017-01-17T00:13:24.918Z,0
2017-01-17T00:14:24.352Z,0
2017-01-17T00:15:26.084Z,0
2017-01-17T00:16:25.426Z,0
2017-01-17T00:17:25.031Z,0
2017-01-17T00:18:25.916Z,0
2017-01-17T00:19:25.466Z,0
2017-01-17T00:20:24.626Z,0
2017-01-17T00:21:26.286Z,0
2017-01-17T00:22:25.624Z,0
2017-01-17T00:23:26.900Z,0
2017-01-17T00:24:25.598Z,0
2017-01-17T00:25:25.800Z,0
2017-01-17T00:26:26.334Z,0
2017-01-17T00:27:24.892Z,0
2017-01-17T00:28:24.686Z,0
2017-01-17T00:29:24.702Z,0
2017-01-17T00:30:24.701Z,0
2017-01-17T00:31:25.904Z,0
2017-01-17T00:32:25.095Z,0
2017-01-17T00:33:24.196Z,0
2017-01-17T00:34:24.872Z,0
2017-01-17T00:35:26.197Z,0
2017-01-17T00:36:25.384Z,0
2017-01-17T00:37:26.192Z,0
2017-01-17T00:38:25.600Z,0
2017-01-17T00:39:25.741Z,0
2017-01-17T00:40:24.996Z,0
2017-01-17T00:41:26.823Z,0
2017-01-17T00:42:25.300Z,0
2017-01-17T00:43:25.243Z,0
2017-01-17T00:44:26.162Z,0
2017-01-17T00:45:26.680Z,0
2017-01-17T00:46:25.347Z,0
2017-01-17T00:47:26.078Z,0
2017-01-17T00:48:25.359Z,0
2017-01-17T00:49:26.219Z,0
2017-01-17T00:50:25.119Z,0
2017-01-17T00:51:26.601Z,0
2017-01-17T00:52:26.007Z,0
2017-01-17T00:53:25.663Z,0
2017-01-17T00:54:25.244Z,0
2017-01-17T00:55:25.159Z,0
2017-01-17T00:56:26.260Z,0
2017-01-17T00:57:25.152Z,0
2017-01-17T00:58:26.201Z,0
2017-01-17T00:59:25.017Z,0
2017-01-17T01:00:25.624Z,0
2017-01-17T01:01:25.482Z,0
2017-01-17T01:02:26.463Z,0
2017-01-17T01:03:27.325Z,0
2017-01-17T01:04:25.811Z,0
2017-01-17T01:05:26.206Z,0
2017-01-17T01:06:24.843Z,0
2017-01-17T01:07:25.623Z,0
2017-01-17T01:08:25.876Z,0
2017-01-17T01:09:25.775Z,0
2017-01-17T01:10:25.934Z,0
2017-01-17T01:11:25.873Z,0
2017-01-17T01:12:26.404Z,0
2017-01-17T01:13:25.957Z,0
2017-01-17T01:14:25.330Z,0
2017-01-17T01:15:25.850Z,0
2017-01-17T01:16:25.723Z,0
2017-01-17T01:17:26.439Z,0
2017-01-17T01:18:27.107Z,0
2017-01-17T01:19:25.598Z,0
2017-01-17T01:20:26.383Z,0
2017-01-17T01:21:26.190Z,0
2017-01-17T01:22:26.310Z,0
2017-01-17T01:23:26.256Z,0
2017-01-17T01:24:26.699Z,0
2017-01-17T01:25:26.524Z,0
2017-01-17T01:26:26.108Z,0
2017-01-17T01:27:26.138Z,0
2017-01-17T01:28:26.613Z,0
2017-01-17T01:29:26.045Z,0
2017-01-17T01:30:27.071Z,0
2017-01-17T01:31:26.476Z,0
2017-01-17T01:32:25.642Z,0
2017-01-17T01:33:27.159Z,0
2017-01-17T01:34:26.625Z,0
2017-01-17T01:35:25.561Z,0
2017-01-17T01:36:25.944Z,0
2017-01-17T01:37:27.096Z,0
2017-01-17T01:38:26.604Z,0
2017-01-17T01:39:26.799Z,0
2017-01-17T01:40:26.925Z,0
2017-01-17T01:41:26.025Z,0
2017-01-17T01:42:26.904Z,0
2017-01-17T01:43:26.337Z,0
2017-01-17T01:44:26.848Z,0
2017-01-17T01:45:26.701Z,0
2017-01-17T01:46:27.096Z,0
2017-01-17T01:47:26.033Z,0
2017-01-17T01:48:26.886Z,0
2017-01-17T01:49:25.813Z,0
2017-01-17T01:50:26.717Z,0
2017-01-17T01:51:26.419Z,0
2017-01-17T01:52:26.672Z,0
2017-01-17T01:53:26.617Z,0
2017-01-17T01:54:26.534Z,0
2017-01-17T01:55:26.146Z,0
2017-01-17T01:56:26.354Z,0
2017-01-17T01:57:26.542Z,0
2017-01-17T01:58:26.755Z,0
2017-01-17T01:59:26.650Z,0
2017-01-17T02:00:27.248Z,0
2017-01-17T02:01:26.439Z,0
2017-01-17T02:02:26.281Z,0
2017-01-17T02:03:26.912Z,0
2017-01-17T02:04:25.895Z,0
2017-01-17T02:05:26.921Z,0
2017-01-17T02:06:27.424Z,0
2017-01-17T02:07:25.194Z,0
2017-01-17T02:08:26.679Z,0
2017-01-17T02:09:27.651Z,0
2017-01-17T02:10:25.854Z,0
2017-01-17T02:11:26.749Z,0
2017-01-17T02:12:25.726Z,0
2017-01-17T02:13:26.386Z,0
2017-01-17T02:14:27.429Z,0
2017-01-17T02:15:26.888Z,0
2017-01-17T02:16:26.682Z,0
2017-01-17T02:17:27.077Z,0
2017-01-17T02:18:26.027Z,0
2017-01-17T02:19:26.069Z,0
2017-01-17T02:20:26.790Z,0
2017-01-17T02:21:27.412Z,0
2017-01-17T02:22:26.672Z,0
2017-01-17T02:23:26.016Z,0
2017-01-17T02:24:27.392Z,0
2017-01-17T02:25:27.766Z,0
2017-01-17T02:26:27.017Z,0
2017-01-17T02:27:26.250Z,0
2017-01-17T02:28:25.946Z,0
2017-01-17T02:29:28.076Z,0
2017-01-17T02:30:27.180Z,0
2017-01-17T02:31:26.583Z,0
2017-01-17T02:32:26.088Z,0
2017-01-17T02:33:27.405Z,0
2017-01-17T02:34:27.008Z,0
2017-01-17T02:35:26.518Z,0
2017-01-17T02:36:26.212Z,0
2017-01-17T02:37:26.298Z,0
2017-01-17T02:38:27.118Z,0
2017-01-17T02:39:27.581Z,0
2017-01-17T02:40:26.995Z,0
2017-01-17T02:41:26.955Z,0
2017-01-17T02:42:26.993Z,0
2017-01-17T02:43:26.563Z,0
2017-01-17T02:44:26.797Z,0
2017-01-17T02:45:27.394Z,0
2017-01-17T02:46:26.985Z,0
2017-01-17T02:47:26.005Z,0
2017-01-17T02:48:27.195Z,0
2017-01-17T02:49:27.166Z,0
2017-01-17T02:50:26.714Z,0
2017-01-17T02:51:26.377Z,0
2017-01-17T02:52:26.407Z,0
2017-01-17T02:53:26.760Z,0
2017-01-17T02:54:26.849Z,0
2017-01-17T02:55:27.028Z,0
2017-01-17T02:56:27.854Z,0
2017-01-17T02:57:27.129Z,0
2017-01-17T02:58:27.151Z,0
2017-01-17T02:59:27.046Z,0
2017-01-17T03:00:26.812Z,0
2017-01-17T03:01:27.601Z,0
2017-01-17T03:02:26.819Z,0
2017-01-17T03:03:26.781Z,0
2017-01-17T03:04:27.600Z,0
2017-01-17T03:05:27.067Z,0
2017-01-17T03:06:26.870Z,0
2017-01-17T03:07:27.829Z,0
2017-01-17T03:08:27.776Z,0
2017-01-17T03:09:28.410Z,0
2017-01-17T03:10:27.028Z,0
2017-01-17T03:11:26.687Z,0
2017-01-17T03:12:27.955Z,0
2017-01-17T03:13:26.980Z,0
2017-01-17T03:14:27.344Z,0
2017-01-17T03:15:27.448Z,0
2017-01-17T03:16:27.353Z,0
2017-01-17T03:17:27.484Z,0
2017-01-17T03:18:27.683Z,0
2017-01-17T03:19:27.228Z,0
2017-01-17T03:20:27.999Z,0
2017-01-17T03:21:26.686Z,0
2017-01-17T03:22:27.658Z,0
2017-01-17T03:23:26.892Z,0
2017-01-17T03:24:27.657Z,0
2017-01-17T03:25:27.400Z,0
2017-01-17T03:26:26.083Z,0
2017-01-17T03:27:27.861Z,0
2017-01-17T03:28:26.788Z,0
2017-01-17T03:29:28.538Z,0
2017-01-17T03:30:26.922Z,0
2017-01-17T03:31:27.741Z,0
2017-01-17T03:32:26.778Z,0
2017-01-17T03:33:27.304Z,0
2017-01-17T03:34:28.269Z,0
2017-01-17T03:35:26.846Z,0
2017-01-17T03:36:26.870Z,0
2017-01-17T03:37:27.051Z,0
2017-01-17T03:38:27.293Z,0
2017-01-17T03:39:27.121Z,0
2017-01-17T03:40:27.453Z,0
2017-01-17T03:41:28.201Z,0
2017-01-17T03:42:26.916Z,0
2017-01-17T03:43:27.393Z,0
2017-01-17T03:44:28.575Z,0
2017-01-17T03:45:27.367Z,0
2017-01-17T03:46:28.167Z,0
2017-01-17T03:47:28.300Z,0
2017-01-17T03:48:27.539Z,0
2017-01-17T03:49:28.650Z,0
2017-01-17T03:50:27.403Z,0
2017-01-17T03:51:27.045Z,0
2017-01-17T03:52:27.893Z,0
2017-01-17T03:53:28.668Z,0
2017-01-17T03:54:27.667Z,0
2017-01-17T03:55:28.080Z,0
2017-01-17T03:56:27.248Z,0
2017-01-17T03:57:27.420Z,0
2017-01-17T03:58:27.946Z,0
2017-01-17T03:59:27.298Z,0
2017-01-17T04:00:29.196Z,0
2017-01-17T04:01:27.900Z,0
2017-01-17T04:02:27.437Z,0
2017-01-17T04:03:28.612Z,0
2017-01-17T04:04:27.868Z,0
2017-01-17T04:05:26.677Z,0
2017-01-17T04:06:28.940Z,0
2017-01-17T04:07:27.583Z,0
2017-01-17T04:08:27.504Z,0
2017-01-17T04:09:26.456Z,0
2017-01-17T04:10:28.053Z,0
2017-01-17T04:11:26.513Z,0
2017-01-17T04:12:27.509Z,0
2017-01-17T04:13:27.604Z,0
2017-01-17T04:14:27.369Z,0
2017-01-17T04:15:29.138Z,0
2017-01-17T04:16:28.005Z,0
2017-01-17T04:17:27.713Z,0
2017-01-17T04:18:28.287Z,0
2017-01-17T04:19:26.631Z,0
2017-01-17T04:20:26.890Z,0
2017-01-17T04:21:27.908Z,0
2017-01-17T04:22:27.733Z,0
2017-01-17T04:23:26.708Z,0
2017-01-17T04:24:27.847Z,0
2017-01-17T04:25:28.161Z,0
2017-01-17T04:26:28.018Z,0
2017-01-17T04:27:28.113Z,0
2017-01-17T04:28:28.208Z,0
2017-01-17T04:29:26.873Z,0
2017-01-17T04:30:27.170Z,0
2017-01-17T04:31:28.978Z,0
2017-01-17T04:32:27.612Z,0
2017-01-17T04:33:28.000Z,0
2017-01-17T04:34:27.704Z,0
2017-01-17T04:35:27.478Z,0
2017-01-17T04:36:28.292Z,0
2017-01-17T04:37:28.438Z,0
2017-01-17T04:38:28.652Z,0
2017-01-17T04:39:29.074Z,0
2017-01-17T04:40:30.008Z,0
2017-01-17T04:41:28.615Z,0
2017-01-17T04:42:28.130Z,0
2017-01-17T04:43:27.121Z,0
2017-01-17T04:44:28.699Z,0
2017-01-17T04:45:28.757Z,0
2017-01-17T04:46:27.300Z,0
2017-01-17T04:47:28.680Z,0
2017-01-17T04:48:29.143Z,0
2017-01-17T04:49:28.081Z,0
2017-01-17T04:50:28.065Z,0
2017-01-17T04:51:28.046Z,0
2017-01-17T04:52:28.581Z,0
2017-01-17T04:53:28.274Z,0
2017-01-17T04:54:28.084Z,0
2017-01-17T04:55:27.549Z,0
2017-01-17T04:56:28.785Z,0
2017-01-17T04:57:27.917Z,0
2017-01-17T04:58:28.030Z,0
2017-01-17T04:59:28.401Z,0
2017-01-17T05:00:27.234Z,0
2017-01-17T05:01:28.490Z,0
2017-01-17T05:02:27.412Z,0
2017-01-17T05:03:28.523Z,0
2017-01-17T05:04:29.154Z,0
2017-01-17T05:05:28.286Z,0
2017-01-17T05:06:29.134Z,0
2017-01-17T05:07:27.720Z,0
2017-01-17T05:08:27.989Z,0
2017-01-17T05:09:29.288Z,0
2017-01-17T05:10:29.767Z,0
2017-01-17T05:11:29.035Z,0
2017-01-17T05:12:28.465Z,0
2017-01-17T05:13:29.049Z,0
2017-01-17T05:14:29.967Z,0
2017-01-17T05:15:29.597Z,0
2017-01-17T05:16:28.861Z,0
2017-01-17T05:17:28.287Z,0
2017-01-17T05:18:29.600Z,0
2017-01-17T05:19:30.925Z,0
2017-01-17T05:20:29.027Z,0
2017-01-17T05:21:29.724Z,0
2017-01-17T05:22:28.354Z,0
2017-01-17T05:23:30.600Z,0
2017-01-17T05:24:29.679Z,0
2017-01-17T05:25:29.746Z,0
2017-01-17T05:26:28.756Z,0
2017-01-17T05:27:29.322Z,0
2017-01-17T05:28:28.585Z,0
2017-01-17T05:29:29.510Z,0
2017-01-17T05:30:28.241Z,0
2017-01-17T05:31:28.799Z,0
2017-01-17T05:32:29.224Z,0
2017-01-17T05:33:29.330Z,0
2017-01-17T05:34:29.022Z,0
2017-01-17T05:35:28.063Z,0
2017-01-17T05:36:28.741Z,0
2017-01-17T05:37:29.141Z,0
2017-01-17T05:38:28.441Z,0
2017-01-17T05:39:29.691Z,0
2017-01-17T05:40:28.593Z,0
2017-01-17T05:41:29.395Z,0
2017-01-17T05:42:29.186Z,0
2017-01-17T05:43:29.623Z,0
2017-01-17T05:44:28.693Z,0
2017-01-17T05:45:28.678Z,0
2017-01-17T05:46:29.924Z,0
2017-01-17T05:47:31.136Z,0
2017-01-17T05:48:29.419Z,0
2017-01-17T05:49:28.494Z,0
2017-01-17T05:50:29.047Z,0
2017-01-17T05:51:28.868Z,0
2017-01-17T05:52:28.953Z,0
2017-01-17T05:53:29.711Z,0
2017-01-17T05:54:29.073Z,0
2017-01-17T05:55:28.784Z,0
2017-01-17T05:56:28.693Z,0
2017-01-17T05:57:28.159Z,0
2017-01-17T05:58:28.399Z,0
2017-01-17T05:59:28.713Z,0
2017-01-17T06:00:29.143Z,0
2017-01-17T06:01:29.593Z,0
2017-01-17T06:02:29.078Z,0
2017-01-17T06:03:28.830Z,0
2017-01-17T06:04:31.449Z,0
2017-01-17T06:05:30.333Z,0
2017-01-17T06:06:29.703Z,0
2017-01-17T06:07:29.826Z,0
2017-01-17T06:08:28.853Z,0
2017-01-17T06:09:30.482Z,0
2017-01-17T06:10:28.882Z,0
2017-01-17T06:11:28.773Z,0
2017-01-17T06:12:28.596Z,0
2017-01-17T06:13:29.037Z,0
2017-01-17T06:14:29.612Z,0
2017-01-17T06:15:29.754Z,0
2017-01-17T06:16:28.637Z,0
2017-01-17T06:17:29.962Z,0
2017-01-17T06:18:30.313Z,0
2017-01-17T06:19:28.305Z,0
2017-01-17T06:20:29.395Z,0
2017-01-17T06:21:29.319Z,0
2017-01-17T06:22:30.621Z,0
2017-01-17T06:23:29.465Z,0
2017-01-17T06:24:29.695Z,0
2017-01-17T06:25:29.592Z,0
2017-01-17T06:26:29.229Z,0
2017-01-17T06:27:29.594Z,0
2017-01-17T06:28:29.642Z,0
2017-01-17T06:29:28.717Z,0
2017-01-17T06:30:28.770Z,0
2017-01-17T06:31:29.674Z,0
2017-01-17T06:32:30.581Z,0
2017-01-17T06:33:30.435Z,0
2017-01-17T06:34:33.193Z,0
2017-01-17T06:35:29.065Z,0
2017-01-17T06:36:29.183Z,0
2017-01-17T06:37:29.102Z,0
2017-01-17T06:38:28.328Z,0
2017-01-17T06:39:29.600Z,0
2017-01-17T06:40:29.912Z,0
2017-01-17T06:41:29.092Z,0
2017-01-17T06:42:29.020Z,0
2017-01-17T06:43:29.400Z,0
2017-01-17T06:44:29.862Z,0
2017-01-17T06:45:29.959Z,0
2017-01-17T06:46:30.023Z,0
2017-01-17T06:47:30.371Z,0
2017-01-17T06:48:29.368Z,0
2017-01-17T06:49:29.865Z,0
2017-01-17T06:50:30.111Z,0
2017-01-17T06:51:29.423Z,0
2017-01-17T06:52:28.989Z,0
2017-01-17T06:53:29.336Z,0
2017-01-17T06:54:29.164Z,0
2017-01-17T06:55:30.996Z,0
2017-01-17T06:56:30.385Z,0
2017-01-17T06:57:28.695Z,0
2017-01-17T06:58:29.901Z,0
2017-01-17T06:59:29.595Z,0
2017-01-17T07:00:28.919Z,0
2017-01-17T07:01:29.219Z,0
2017-01-17T07:02:30.251Z,0
2017-01-17T07:03:29.903Z,0
2017-01-17T07:04:29.671Z,0
2017-01-17T07:05:30.286Z,0
2017-01-17T07:06:30.416Z,0
2017-01-17T07:07:29.365Z,0
2017-01-17T07:08:29.917Z,0
2017-01-17T07:09:29.715Z,0
2017-01-17T07:10:30.407Z,0
2017-01-17T07:11:29.198Z,5
2017-01-17T07:12:29.328Z,5
2017-01-17T07:13:30.328Z,5
2017-01-17T07:14:29.343Z,5
2017-01-17T07:15:29.781Z,5
2017-01-17T07:16:29.084Z,5
2017-01-17T07:17:30.353Z,10
2017-01-17T07:18:29.155Z,10
2017-01-17T07:19:30.359Z,10
2017-01-17T07:20:29.951Z,10
2017-01-17T07:21:29.037Z,10
2017-01-17T07:22:29.272Z,10
2017-01-17T07:23:30.455Z,15
2017-01-17T07:24:30.411Z,15
2017-01-17T07:25:29.025Z,15
2017-01-17T07:26:29.446Z,15
2017-01-17T07:27:30.247Z,15
2017-01-17T07:28:31.004Z,15
2017-01-17T07:29:29.534Z,15
2017-01-17T07:30:30.071Z,15
2017-01-17T07:31:29.585Z,20
2017-01-17T07:32:30.949Z,20
2017-01-17T07:33:29.575Z,20
2017-01-17T07:34:29.510Z,25
2017-01-17T07:35:28.629Z,25
2017-01-17T07:36:28.949Z,25
2017-01-17T07:37:29.079Z,25
2017-01-17T07:38:29.042Z,30
2017-01-17T07:39:29.060Z,30
2017-01-17T07:40:29.044Z,30
2017-01-17T07:41:28.572Z,25
2017-01-17T07:42:29.265Z,20
2017-01-17T07:43:29.252Z,20
2017-01-17T07:44:28.884Z,25
2017-01-17T07:45:29.026Z,35
2017-01-17T07:46:31.247Z,30
2017-01-17T07:47:30.231Z,20
2017-01-17T07:48:30.967Z,25
2017-01-17T07:49:30.432Z,30
2017-01-17T07:50:29.761Z,35
2017-01-17T07:51:29.939Z,35
2017-01-17T07:52:30.601Z,40
2017-01-17T07:53:29.547Z,45
2017-01-17T07:54:30.167Z,45
2017-01-17T07:55:29.695Z,50
2017-01-17T07:56:29.156Z,50
2017-01-17T07:57:30.186Z,45
2017-01-17T07:58:30.199Z,45
2017-01-17T07:59:30.610Z,60
2017-01-17T08:00:29.719Z,65
2017-01-17T08:01:31.167Z,60
2017-01-17T08:02:30.868Z,60
2017-01-17T08:03:29.983Z,65
2017-01-17T08:04:30.247Z,65
2017-01-17T08:05:30.270Z,65
2017-01-17T08:06:29.910Z,65
2017-01-17T08:07:30.981Z,60
2017-01-17T08:08:30.078Z,65
2017-01-17T08:09:30.856Z,70
2017-01-17T08:10:30.260Z,80
2017-01-17T08:11:28.759Z,85
2017-01-17T08:12:29.504Z,80
2017-01-17T08:13:30.032Z,75
2017-01-17T08:14:30.303Z,90
2017-01-17T08:15:31.471Z,95
2017-01-17T08:16:30.914Z,95
2017-01-17T08:17:30.132Z,100
2017-01-17T08:18:29.552Z,105
2017-01-17T08:19:29.998Z,105
2017-01-17T08:20:29.579Z,110
2017-01-17T08:21:30.897Z,120
2017-01-17T08:22:29.928Z,120
2017-01-17T08:23:30.395Z,120
2017-01-17T08:24:30.173Z,125
2017-01-17T08:25:28.989Z,130
2017-01-17T08:26:29.734Z,135
2017-01-17T08:27:29.823Z,140
2017-01-17T08:28:30.034Z,145
2017-01-17T08:29:29.199Z,145
2017-01-17T08:30:30.170Z,150
2017-01-17T08:31:30.971Z,155
2017-01-17T08:32:30.091Z,155
2017-01-17T08:33:30.743Z,160
2017-01-17T08:34:30.599Z,165
2017-01-17T08:35:29.161Z,170
2017-01-17T08:36:30.026Z,180
2017-01-17T08:37:30.943Z,185
2017-01-17T08:38:30.308Z,185
2017-01-17T08:39:30.259Z,195
2017-01-17T08:40:30.883Z,190
2017-01-17T08:41:31.150Z,185
2017-01-17T08:42:30.983Z,185
2017-01-17T08:43:30.547Z,185
2017-01-17T08:44:30.625Z,185
2017-01-17T08:45:29.975Z,185
2017-01-17T08:46:30.365Z,195
2017-01-17T08:47:30.140Z,205
2017-01-17T08:48:30.592Z,205
2017-01-17T08:49:30.734Z,195
2017-01-17T08:50:30.335Z,200
2017-01-17T08:51:31.325Z,205
2017-01-17T08:52:29.883Z,215
2017-01-17T08:53:29.811Z,220
2017-01-17T08:54:29.834Z,230
2017-01-17T08:55:31.263Z,240
2017-01-17T08:56:30.146Z,250
2017-01-17T08:57:31.090Z,245
2017-01-17T08:58:30.751Z,245
2017-01-17T08:59:30.313Z,240
2017-01-17T09:00:32.271Z,235
2017-01-17T09:01:29.974Z,215
2017-01-17T09:02:30.086Z,200
2017-01-17T09:03:29.166Z,200
2017-01-17T09:04:30.691Z,215
2017-01-17T09:05:29.988Z,230
2017-01-17T09:06:30.129Z,245
2017-01-17T09:07:29.785Z,240
2017-01-17T09:08:31.273Z,230
2017-01-17T09:09:31.580Z,245
2017-01-17T09:10:30.141Z,255
2017-01-17T09:11:30.060Z,270
2017-01-17T09:12:32.456Z,280
2017-01-17T09:13:31.337Z,290
2017-01-17T09:14:31.078Z,305
2017-01-17T09:15:30.676Z,285
2017-01-17T09:16:31.018Z,260
2017-01-17T09:17:30.244Z,255
2017-01-17T09:18:31.163Z,270
2017-01-17T09:19:31.118Z,280
2017-01-17T09:20:32.210Z,280
2017-01-17T09:21:30.718Z,280
2017-01-17T09:22:30.457Z,270
2017-01-17T09:23:31.388Z,270
2017-01-17T09:24:30.910Z,270
2017-01-17T09:25:30.399Z,250
2017-01-17T09:26:31.507Z,240
2017-01-17T09:27:30.965Z,230
2017-01-17T09:28:30.942Z,215
2017-01-17T09:29:31.141Z,220
2017-01-17T09:30:31.038Z,255
2017-01-17T09:31:30.421Z,260
2017-01-17T09:32:31.458Z,250
2017-01-17T09:33:30.974Z,230
2017-01-17T09:34:31.177Z,220
2017-01-17T09:35:30.849Z,215
2017-01-17T09:36:31.032Z,215
2017-01-17T09:37:31.452Z,200
2017-01-17T09:38:30.161Z,185
2017-01-17T09:39:30.169Z,180
2017-01-17T09:40:30.769Z,175
2017-01-17T09:41:31.208Z,175
2017-01-17T09:42:31.547Z,190
2017-01-17T09:43:30.521Z,190
2017-01-17T09:44:31.298Z,185
2017-01-17T09:45:31.470Z,195
2017-01-17T09:46:31.239Z,205
2017-01-17T09:47:32.660Z,215
2017-01-17T09:48:30.318Z,225
2017-01-17T09:49:31.059Z,245
2017-01-17T09:50:31.070Z,240
2017-01-17T09:51:30.205Z,225
2017-01-17T09:52:30.985Z,215
2017-01-17T09:53:32.241Z,225
2017-01-17T09:54:32.201Z,245
2017-01-17T09:55:31.853Z,255
2017-01-17T09:56:31.213Z,250
2017-01-17T09:57:31.393Z,260
2017-01-17T09:58:31.507Z,280
2017-01-17T09:59:30.518Z,270
2017-01-17T10:00:31.014Z,255
2017-01-17T10:01:31.509Z,250
2017-01-17T10:02:30.973Z,255
2017-01-17T10:03:30.803Z,260
2017-01-17T10:04:31.694Z,275
2017-01-17T10:05:32.049Z,300
2017-01-17T10:06:32.057Z,320
2017-01-17T10:07:32.221Z,340
2017-01-17T10:08:32.062Z,350
2017-01-17T10:09:31.536Z,355
2017-01-17T10:10:30.476Z,340
2017-01-17T10:11:31.043Z,370
2017-01-17T10:12:31.060Z,425
2017-01-17T10:13:31.593Z,440
2017-01-17T10:14:31.067Z,440
2017-01-17T10:15:31.639Z,405
2017-01-17T10:16:31.565Z,395
2017-01-17T10:17:30.437Z,380
2017-01-17T10:18:31.001Z,385
2017-01-17T10:19:31.953Z,415
2017-01-17T10:20:31.362Z,440
2017-01-17T10:21:31.444Z,425
2017-01-17T10:22:32.391Z,395
2017-01-17T10:23:32.469Z,365
2017-01-17T10:24:32.466Z,340
2017-01-17T10:25:31.130Z,325
2017-01-17T10:26:31.310Z,310
2017-01-17T10:27:32.875Z,310
2017-01-17T10:28:32.380Z,310
2017-01-17T10:29:34.461Z,320
2017-01-17T10:30:31.198Z,315
2017-01-17T10:31:30.818Z,315
2017-01-17T10:32:32.240Z,310
2017-01-17T10:33:30.967Z,310
2017-01-17T10:34:32.556Z,290
2017-01-17T10:35:31.323Z,275
2017-01-17T10:36:32.364Z,265
2017-01-17T10:37:32.528Z,265
2017-01-17T10:38:31.968Z,270
2017-01-17T10:39:31.111Z,270
2017-01-17T10:40:31.364Z,275
2017-01-17T10:41:32.948Z,285
2017-01-17T10:42:32.651Z,290
2017-01-17T10:43:31.171Z,300
2017-01-17T10:44:32.636Z,315
2017-01-17T10:45:31.353Z,320
2017-01-17T10:46:32.734Z,335
2017-01-17T10:47:31.117Z,350
2017-01-17T10:48:31.235Z,370
2017-01-17T10:49:31.293Z,380
2017-01-17T10:50:32.289Z,385
2017-01-17T10:51:32.303Z,390
2017-01-17T10:52:32.347Z,380
2017-01-17T10:53:32.418Z,365
2017-01-17T10:54:32.327Z,360
2017-01-17T10:55:32.095Z,360
2017-01-17T10:56:32.182Z,365
2017-01-17T10:57:31.628Z,380
2017-01-17T10:58:33.309Z,395
2017-01-17T10:59:31.732Z,395
2017-01-17T11:00:32.106Z,400
2017-01-17T11:01:31.542Z,425
2017-01-17T11:02:32.647Z,440
2017-01-17T11:03:31.316Z,435
2017-01-17T11:04:31.250Z,430
2017-01-17T11:05:32.535Z,435
2017-01-17T11:06:32.681Z,435
2017-01-17T11:07:32.588Z,440
2017-01-17T11:08:31.428Z,440
2017-01-17T11:09:33.251Z,440
2017-01-17T11:10:31.882Z,440
2017-01-17T11:11:31.241Z,440
2017-01-17T11:12:33.258Z,445
2017-01-17T11:13:32.223Z,475
2017-01-17T11:14:32.956Z,490
2017-01-17T11:15:31.579Z,505
2017-01-17T11:16:32.341Z,525
2017-01-17T11:17:33.196Z,545
2017-01-17T11:18:32.151Z,575
2017-01-17T11:19:31.912Z,590
2017-01-17T11:20:31.917Z,590
2017-01-17T11:21:32.644Z,595
2017-01-17T11:22:32.461Z,590
2017-01-17T11:23:32.192Z,605
2017-01-17T11:24:32.363Z,590
2017-01-17T11:25:32.898Z,595
2017-01-17T11:26:32.564Z,600
2017-01-17T11:27:32.721Z,600
2017-01-17T11:28:32.926Z,610
2017-01-17T11:29:33.548Z,565
2017-01-17T11:30:32.330Z,550
2017-01-17T11:31:32.536Z,530
2017-01-17T11:32:32.465Z,520
2017-01-17T11:33:33.528Z,560
2017-01-17T11:34:32.969Z,565
2017-01-17T11:35:33.377Z,570
2017-01-17T11:36:32.307Z,545
2017-01-17T11:37:32.607Z,545
2017-01-17T11:38:33.266Z,545
2017-01-17T11:39:32.496Z,550
2017-01-17T11:40:33.892Z,550
2017-01-17T11:41:33.145Z,560
2017-01-17T11:42:32.458Z,575
2017-01-17T11:43:32.159Z,585
2017-01-17T11:44:32.289Z,560
2017-01-17T11:45:33.124Z,550
2017-01-17T11:46:33.680Z,565
2017-01-17T11:47:32.452Z,560
2017-01-17T11:48:32.756Z,550
2017-01-17T11:49:32.471Z,545
2017-01-17T11:50:33.559Z,530
2017-01-17T11:51:32.936Z,500
2017-01-17T11:52:32.706Z,505
2017-01-17T11:53:33.516Z,495
2017-01-17T11:54:33.065Z,490
2017-01-17T11:55:32.592Z,460
2017-01-17T11:56:32.302Z,445
2017-01-17T11:57:33.052Z,430
2017-01-17T11:58:34.470Z,415
2017-01-17T11:59:33.519Z,405
2017-01-17T12:00:32.491Z,385
2017-01-17T12:01:32.737Z,365
2017-01-17T12:02:33.327Z,350
2017-01-17T12:03:31.920Z,325
2017-01-17T12:04:32.714Z,315
2017-01-17T12:05:32.606Z,320
2017-01-17T12:06:32.341Z,350
2017-01-17T12:07:32.377Z,385
2017-01-17T12:08:33.056Z,415
2017-01-17T12:09:33.202Z,430
2017-01-17T12:10:34.625Z,450
2017-01-17T12:11:32.612Z,450
2017-01-17T12:12:33.725Z,445
2017-01-17T12:13:33.621Z,435
2017-01-17T12:14:32.522Z,420
2017-01-17T12:15:33.510Z,415
2017-01-17T12:16:34.359Z,415
2017-01-17T12:17:32.739Z,425
2017-01-17T12:18:32.411Z,440
2017-01-17T12:19:32.404Z,455
2017-01-17T12:20:34.031Z,450
2017-01-17T12:21:32.604Z,435
2017-01-17T12:22:33.871Z,425
2017-01-17T12:23:32.796Z,425
2017-01-17T12:24:33.695Z,465
2017-01-17T12:25:35.218Z,485
2017-01-17T12:26:34.202Z,480
2017-01-17T12:27:34.476Z,470
2017-01-17T12:28:33.633Z,420
2017-01-17T12:29:33.945Z,410
2017-01-17T12:30:34.317Z,440
2017-01-17T12:31:34.441Z,450
2017-01-17T12:32:34.132Z,455
2017-01-17T12:33:33.560Z,470
2017-01-17T12:34:34.154Z,490
2017-01-17T12:35:34.387Z,470
2017-01-17T12:36:34.617Z,475
2017-01-17T12:37:34.237Z,480
2017-01-17T12:38:34.300Z,485
2017-01-17T12:39:33.736Z,470
2017-01-17T12:40:34.402Z,460
2017-01-17T12:41:33.267Z,450
2017-01-17T12:42:33.206Z,450
2017-01-17T12:43:34.571Z,445
2017-01-17T12:44:34.236Z,435
2017-01-17T12:45:33.709Z,420
2017-01-17T12:46:33.730Z,395
2017-01-17T12:47:33.709Z,360
2017-01-17T12:48:35.161Z,340
2017-01-17T12:49:33.762Z,325
2017-01-17T12:50:32.819Z,315
2017-01-17T12:51:33.446Z,315
2017-01-17T12:52:32.748Z,315
2017-01-17T12:53:34.272Z,315
2017-01-17T12:54:33.476Z,315
2017-01-17T12:55:33.124Z,315
2017-01-17T12:56:33.751Z,305
2017-01-17T12:57:33.911Z,300
2017-01-17T12:58:33.682Z,295
2017-01-17T12:59:33.705Z,295
2017-01-17T13:00:34.108Z,295
2017-01-17T13:01:33.949Z,300
2017-01-17T13:02:33.873Z,305
2017-01-17T13:03:34.385Z,315
2017-01-17T13:04:33.986Z,320
2017-01-17T13:05:33.548Z,325
2017-01-17T13:06:33.704Z,325
2017-01-17T13:07:35.221Z,330
2017-01-17T13:08:33.382Z,330
2017-01-17T13:09:33.504Z,330
2017-01-17T13:10:33.366Z,325
2017-01-17T13:11:33.718Z,325
2017-01-17T13:12:33.355Z,330
2017-01-17T13:13:33.642Z,340
2017-01-17T13:14:34.162Z,335
2017-01-17T13:15:33.813Z,330
2017-01-17T13:16:34.044Z,330
2017-01-17T13:17:34.158Z,335
2017-01-17T13:18:34.075Z,330
2017-01-17T13:19:33.952Z,325
2017-01-17T13:20:33.887Z,330
2017-01-17T13:21:34.822Z,335
2017-01-17T13:22:34.580Z,335
2017-01-17T13:23:33.600Z,330
2017-01-17T13:24:34.293Z,325
2017-01-17T13:25:33.792Z,335
2017-01-17T13:26:34.939Z,345
2017-01-17T13:27:34.868Z,345
2017-01-17T13:28:34.313Z,340
2017-01-17T13:29:34.490Z,335
2017-01-17T13:30:34.101Z,325
2017-01-17T13:31:34.542Z,320
2017-01-17T13:32:33.970Z,325
2017-01-17T13:33:34.039Z,320
2017-01-17T13:34:34.843Z,310
2017-01-17T13:35:33.402Z,300
2017-01-17T13:36:33.864Z,300
2017-01-17T13:37:34.258Z,295
2017-01-17T13:38:34.702Z,300
2017-01-17T13:39:34.670Z,305
2017-01-17T13:40:33.680Z,315
2017-01-17T13:41:33.616Z,320
2017-01-17T13:42:34.725Z,330
2017-01-17T13:43:33.930Z,330
2017-01-17T13:44:34.386Z,330
2017-01-17T13:45:34.071Z,330
2017-01-17T13:46:34.596Z,335
2017-01-17T13:47:34.112Z,335
2017-01-17T13:48:34.149Z,330
2017-01-17T13:49:34.524Z,345
2017-01-17T13:50:34.200Z,335
2017-01-17T13:51:33.303Z,320
2017-01-17T13:52:34.126Z,310
2017-01-17T13:53:34.679Z,310
2017-01-17T13:54:34.815Z,305
2017-01-17T13:55:33.835Z,290
2017-01-17T13:56:35.683Z,280
2017-01-17T13:57:34.745Z,275
2017-01-17T13:58:33.613Z,270
2017-01-17T13:59:34.707Z,275
2017-01-17T14:00:35.023Z,280
2017-01-17T14:01:34.619Z,290
2017-01-17T14:02:35.049Z,295
2017-01-17T14:03:34.558Z,300
2017-01-17T14:04:33.859Z,300
2017-01-17T14:05:34.928Z,295
2017-01-17T14:06:36.347Z,280
2017-01-17T14:07:34.530Z,275
2017-01-17T14:08:35.479Z,270
2017-01-17T14:09:34.072Z,260
2017-01-17T14:10:34.269Z,250
2017-01-17T14:11:34.675Z,250
2017-01-17T14:12:35.545Z,245
2017-01-17T14:13:34.624Z,230
2017-01-17T14:14:35.042Z,220
2017-01-17T14:15:35.679Z,205
2017-01-17T14:16:34.974Z,200
2017-01-17T14:17:33.966Z,195
2017-01-17T14:18:34.385Z,195